createdAt,value
2023-04-08T00:01:37.275Z,8.10
2023-04-08T00:04:04.116Z,8.95
2023-04-08T00:06:31.609Z,8.25
2023-04-08T00:08:58.292Z,8.90
2023-04-08T00:11:25.025Z,8.63
2023-04-08T00:13:51.839Z,8.60
2023-04-08T00:16:18.637Z,9.00
2023-04-08T00:18:45.326Z,8.02
2023-04-08T00:21:12.016Z,8.38
2023-04-08T00:23:38.665Z,8.48
2023-04-08T00:26:05.623Z,6.43
2023-04-08T00:28:32.307Z,9.27
2023-04-08T00:30:58.967Z,8.50
2023-04-08T00:33:25.813Z,9.00
2023-04-08T00:35:52.635Z,6.30
2023-04-08T00:38:19.423Z,10.40
2023-04-08T00:40:46.117Z,9.18
2023-04-08T00:43:12.887Z,9.52
2023-04-08T00:45:39.600Z,9.00
2023-04-08T00:48:06.387Z,8.57
2023-04-08T00:50:33.281Z,8.48
2023-04-08T00:52:59.989Z,9.80
2023-04-08T00:55:26.697Z,10.40
2023-04-08T00:57:53.753Z,10.13
2023-04-08T01:00:20.955Z,9.75
2023-04-08T01:02:47.633Z,9.45
2023-04-08T01:05:35.235Z,9.30
2023-04-08T01:08:05.220Z,8.98
2023-04-08T01:10:35.032Z,9.70
2023-04-08T01:13:08.407Z,8.90
2023-04-08T01:15:39.078Z,9.13
2023-04-08T01:18:12.399Z,8.25
2023-04-08T01:20:42.429Z,8.23
2023-04-08T01:23:28.107Z,8.05
2023-04-08T01:25:55.927Z,7.85
2023-04-08T01:28:26.214Z,7.95
2023-04-08T01:30:56.581Z,7.70
2023-04-08T01:33:24.444Z,7.97
2023-04-08T01:35:56.607Z,7.00
2023-04-08T01:38:28.760Z,7.10
2023-04-08T01:40:56.905Z,6.22
2023-04-08T01:43:25.218Z,6.60
2023-04-08T01:45:57.957Z,6.53
2023-04-08T01:48:25.060Z,6.63
2023-04-08T01:50:52.962Z,8.30
2023-04-08T01:53:19.732Z,7.00
2023-04-08T01:55:49.342Z,6.63
2023-04-08T01:58:21.284Z,6.55
2023-04-08T02:00:48.883Z,6.90
2023-04-08T02:03:18.802Z,6.70
2023-04-08T02:05:46.470Z,5.88
2023-04-08T02:08:13.449Z,6.53
2023-04-08T02:10:40.731Z,7.32
2023-04-08T02:13:08.137Z,7.88
2023-04-08T02:18:13.270Z,8.13
2023-04-08T02:20:47.692Z,7.22
2023-04-08T02:23:19.415Z,7.95
2023-04-08T02:25:48.288Z,6.88
2023-04-08T02:28:17.765Z,6.68
2023-04-08T02:30:50.905Z,6.30
2023-04-08T02:33:20.894Z,5.55
2023-04-08T02:35:50.400Z,5.82
2023-04-08T02:38:17.361Z,5.55
2023-04-08T02:40:44.066Z,5.80
2023-04-08T02:43:10.795Z,5.47
2023-04-08T02:45:40.945Z,6.22
2023-04-08T02:48:09.252Z,5.97
2023-04-08T02:50:36.109Z,6.28
2023-04-08T02:53:03.260Z,4.78
2023-04-08T02:55:32.328Z,6.45
2023-04-08T02:57:59.074Z,6.20
2023-04-08T03:00:26.050Z,6.50
2023-04-08T03:02:52.866Z,6.68
2023-04-08T03:05:19.795Z,6.43
2023-04-08T03:07:46.476Z,6.32
2023-04-08T03:10:13.224Z,6.47
2023-04-08T03:12:39.933Z,6.13
2023-04-08T03:15:07.326Z,7.38
2023-04-08T03:20:04.757Z,8.23
2023-04-08T03:22:31.522Z,8.57
2023-04-08T03:24:58.196Z,5.60
2023-04-08T03:27:24.923Z,8.15
2023-04-08T03:29:52.981Z,7.90
2023-04-08T03:32:20.090Z,7.47
2023-04-08T03:34:46.825Z,7.07
2023-04-08T03:37:13.487Z,6.30
2023-04-08T03:39:40.273Z,6.68
2023-04-08T03:42:06.944Z,7.10
2023-04-08T03:44:33.629Z,7.13
2023-04-08T03:47:00.399Z,5.22
2023-04-08T03:49:27.057Z,7.22
2023-04-08T03:51:53.716Z,7.10
2023-04-08T03:54:20.395Z,6.82
2023-04-08T03:56:47.085Z,7.82
2023-04-08T03:59:13.820Z,7.28
2023-04-08T04:01:41.958Z,7.80
2023-04-08T04:04:09.046Z,7.28
2023-04-08T04:06:36.023Z,6.55
2023-04-08T04:09:02.725Z,4.95
2023-04-08T04:11:29.450Z,4.93
2023-04-08T04:13:56.164Z,7.63
2023-04-08T04:16:23.019Z,7.88
2023-04-08T04:18:49.971Z,8.13
2023-04-08T04:21:16.954Z,7.18
2023-04-08T04:23:43.646Z,7.28
2023-04-08T04:26:11.276Z,7.70
2023-04-08T04:28:38.555Z,7.43
2023-04-08T04:31:05.529Z,7.32
2023-04-08T04:33:32.283Z,7.20
2023-04-08T04:35:59.042Z,5.03
2023-04-08T04:38:25.794Z,7.93
2023-04-08T04:40:52.526Z,8.23
2023-04-08T04:43:19.196Z,7.05
2023-04-08T04:45:45.985Z,7.75
2023-04-08T04:48:12.682Z,8.85
2023-04-08T04:50:39.439Z,7.28
2023-04-08T04:53:06.109Z,7.57
2023-04-08T04:55:32.778Z,7.93
2023-04-08T04:57:59.451Z,7.70
2023-04-08T05:00:26.116Z,6.78
2023-04-08T05:02:52.914Z,6.78
2023-04-08T05:05:19.814Z,7.13
2023-04-08T05:07:46.578Z,7.22
2023-04-08T05:10:13.361Z,6.77
2023-04-08T05:12:40.111Z,6.60
2023-04-08T05:15:07.454Z,5.55
2023-04-08T05:20:00.824Z,6.15
2023-04-08T05:22:27.537Z,7.05
2023-04-08T05:24:54.234Z,6.90
2023-04-08T05:27:21.801Z,7.63
2023-04-08T05:29:48.741Z,7.70
2023-04-08T05:32:16.917Z,8.23
2023-04-08T05:34:43.999Z,9.80
2023-04-08T05:37:10.994Z,10.50
2023-04-08T05:39:37.757Z,10.57
2023-04-08T05:42:04.737Z,7.78
2023-04-08T05:44:31.429Z,8.52
2023-04-08T05:46:58.339Z,9.00
2023-04-08T05:49:25.311Z,11.25
2023-04-08T05:51:52.003Z,9.02
2023-04-08T05:54:18.641Z,8.27
2023-04-08T05:56:46.355Z,7.07
2023-04-08T05:59:13.110Z,7.32
2023-04-08T06:01:39.964Z,6.63
2023-04-08T06:04:06.991Z,8.05
2023-04-08T06:06:34.034Z,6.57
2023-04-08T06:09:00.727Z,5.68
2023-04-08T06:11:27.442Z,7.32
2023-04-08T06:13:54.107Z,4.90
2023-04-08T06:16:21.370Z,5.40
2023-04-08T06:21:16.130Z,8.95
2023-04-08T06:26:09.522Z,9.40
2023-04-08T06:28:36.316Z,8.68
2023-04-08T06:31:03.037Z,8.57
2023-04-08T06:33:29.702Z,8.65
2023-04-08T06:36:06.535Z,8.80
2023-04-08T06:38:33.435Z,8.38
2023-04-08T06:41:07.697Z,9.68
2023-04-08T06:43:35.403Z,8.60
2023-04-08T06:46:02.119Z,8.45
2023-04-08T06:48:30.418Z,7.95
2023-04-08T06:50:58.494Z,7.40
2023-04-08T06:53:26.088Z,7.78
2023-04-08T06:55:53.052Z,8.20
2023-04-08T06:58:19.744Z,7.72
2023-04-08T07:00:47.295Z,8.13
2023-04-08T07:03:14.146Z,8.75
2023-04-08T07:05:42.119Z,8.63
2023-04-08T07:08:09.119Z,8.43
2023-04-08T07:10:36.150Z,8.73
2023-04-08T07:13:03.093Z,8.85
2023-04-08T07:15:29.918Z,8.95
2023-04-08T07:17:57.040Z,9.20
2023-04-08T07:20:45.789Z,9.73
2023-04-08T07:23:12.891Z,10.07
2023-04-08T07:25:39.617Z,9.25
2023-04-08T07:28:06.509Z,9.52
2023-04-08T07:30:33.285Z,9.13
2023-04-08T07:33:00.969Z,10.20
2023-04-08T07:35:28.454Z,10.07
2023-04-08T07:37:55.381Z,9.40
2023-04-08T07:40:22.292Z,8.65
2023-04-08T07:42:49.244Z,9.68
2023-04-08T07:45:16.100Z,8.75
2023-04-08T07:47:43.846Z,7.57
2023-04-08T07:50:10.989Z,7.70
2023-04-08T07:52:37.691Z,7.88
2023-04-08T07:55:05.859Z,8.48
2023-04-08T07:57:33.029Z,9.50
2023-04-08T07:59:59.841Z,8.23
2023-04-08T08:02:26.718Z,6.05
2023-04-08T08:04:53.546Z,9.80
2023-04-08T08:07:20.255Z,10.40
2023-04-08T08:09:46.955Z,6.07
2023-04-08T08:12:13.676Z,10.38
2023-04-08T08:14:40.640Z,10.68
2023-04-08T08:17:07.570Z,10.18
2023-04-08T08:19:34.249Z,9.52
2023-04-08T08:22:00.955Z,10.35
2023-04-08T08:24:27.639Z,9.82
2023-04-08T08:26:54.348Z,10.50
2023-04-08T08:29:20.993Z,7.28
2023-04-08T08:31:48.598Z,10.32
2023-04-08T08:34:15.620Z,10.57
2023-04-08T08:36:42.318Z,9.90
2023-04-08T08:39:09.018Z,8.80
2023-04-08T08:41:38.804Z,10.10
2023-04-08T08:44:07.017Z,9.88
2023-04-08T08:46:34.707Z,10.73
2023-04-08T08:49:01.947Z,10.48
2023-04-08T08:51:29.940Z,11.00
2023-04-08T08:53:56.734Z,10.20
2023-04-08T08:56:23.451Z,9.63
2023-04-08T08:58:50.146Z,11.00
2023-04-08T09:01:37.484Z,11.63
2023-04-08T09:04:08.092Z,9.75
2023-04-08T09:06:36.420Z,12.52
2023-04-08T09:09:05.966Z,11.13
2023-04-08T09:11:33.289Z,10.52
2023-04-08T09:16:27.642Z,11.57
2023-04-08T09:18:54.417Z,11.65
2023-04-08T09:21:24.881Z,9.30
2023-04-08T09:23:52.693Z,11.77
2023-04-08T09:26:22.220Z,12.30
2023-04-08T09:29:18.091Z,13.00
2023-04-08T09:31:59.590Z,15.55
2023-04-08T09:34:27.997Z,16.25
2023-04-08T09:36:55.752Z,15.98
2023-04-08T09:39:22.876Z,16.27
2023-04-08T09:41:51.614Z,16.08
2023-04-08T09:44:20.815Z,15.25
2023-04-08T09:47:06.817Z,17.10
2023-04-08T09:50:05.303Z,15.35
2023-04-08T09:52:39.783Z,14.55
2023-04-08T09:55:09.223Z,15.20
2023-04-08T09:57:44.528Z,14.27
2023-04-08T10:00:14.786Z,16.33
2023-04-08T10:02:46.571Z,15.00
2023-04-08T10:05:14.878Z,14.70
2023-04-08T10:07:42.296Z,13.13
2023-04-08T10:12:38.865Z,13.65
2023-04-08T10:15:33.852Z,12.35
2023-04-08T10:18:04.417Z,12.80
2023-04-08T10:20:37.424Z,11.60
2023-04-08T10:23:13.416Z,10.43
2023-04-08T10:25:45.284Z,10.13
2023-04-08T10:28:12.199Z,10.43
2023-04-08T10:30:49.730Z,10.27
2023-04-08T10:33:31.539Z,11.38
2023-04-08T10:36:12.582Z,11.18
2023-04-08T10:38:42.699Z,11.40
2023-04-08T10:41:21.517Z,12.50
2023-04-08T10:43:48.312Z,11.15
2023-04-08T10:46:15.318Z,11.05
2023-04-08T10:48:42.059Z,9.35
2023-04-08T10:51:08.759Z,11.10
2023-04-08T10:53:37.607Z,10.77
2023-04-08T10:56:18.214Z,10.32
2023-04-08T10:58:53.100Z,11.20
2023-04-08T11:01:20.140Z,11.77
2023-04-08T11:03:47.244Z,10.82
2023-04-08T11:06:14.730Z,11.25
2023-04-08T11:11:11.740Z,10.63
2023-04-08T11:13:51.158Z,10.65
2023-04-08T11:16:20.676Z,11.48
2023-04-08T11:18:47.893Z,12.88
2023-04-08T11:21:16.188Z,11.10
2023-04-08T11:23:43.232Z,11.40
2023-04-08T11:26:11.362Z,12.20
2023-04-08T11:28:38.702Z,13.38
2023-04-08T11:33:34.913Z,12.82
2023-04-08T11:36:04.326Z,12.90
2023-04-08T11:38:31.310Z,12.63
2023-04-08T11:40:59.355Z,14.15
2023-04-08T11:43:26.562Z,12.95
2023-04-08T11:45:53.324Z,14.38
2023-04-08T11:48:20.267Z,13.45
2023-04-08T11:50:46.984Z,13.60
2023-04-08T11:53:21.358Z,13.57
2023-04-08T11:55:49.125Z,13.60
2023-04-08T11:58:16.406Z,13.10
2023-04-08T12:03:11.272Z,13.43
2023-04-08T12:05:38.241Z,14.38
2023-04-08T12:08:05.216Z,14.45
2023-04-08T12:10:32.484Z,14.13
2023-04-08T12:12:59.133Z,13.93
2023-04-08T12:15:26.031Z,14.27
2023-04-08T12:17:52.809Z,14.32
2023-04-08T12:20:19.665Z,14.32
2023-04-08T12:22:46.808Z,13.95
2023-04-08T12:25:13.479Z,14.95
2023-04-08T12:27:40.529Z,14.20
2023-04-08T12:30:07.952Z,14.10
2023-04-08T12:35:01.485Z,13.85
2023-04-08T12:37:28.615Z,13.80
2023-04-08T12:39:55.581Z,15.15
2023-04-08T12:42:22.284Z,15.30
2023-04-08T12:44:48.962Z,14.82
2023-04-08T12:47:15.835Z,9.90
2023-04-08T12:49:49.452Z,13.95
2023-04-08T12:52:17.687Z,15.02
2023-04-08T12:54:44.993Z,14.93
2023-04-08T12:57:12.477Z,14.73
2023-04-08T12:59:40.228Z,14.70
2023-04-08T13:02:07.920Z,17.30
2023-04-08T13:04:34.987Z,15.13
2023-04-08T13:07:01.738Z,15.43
2023-04-08T13:09:30.440Z,15.52
2023-04-08T13:11:58.102Z,15.00
2023-04-08T13:14:24.793Z,16.27
2023-04-08T13:16:51.598Z,12.15
2023-04-08T13:19:18.354Z,14.75
2023-04-08T13:21:46.223Z,14.50
2023-04-08T13:24:13.260Z,15.35
2023-04-08T13:26:40.241Z,15.73
2023-04-08T13:29:06.993Z,15.65
2023-04-08T13:31:33.752Z,16.60
2023-04-08T13:34:00.596Z,16.17
2023-04-08T13:36:28.690Z,17.00
2023-04-08T13:38:56.419Z,15.60
2023-04-08T13:43:50.569Z,15.27
2023-04-08T13:46:18.447Z,15.32
2023-04-08T13:48:45.910Z,16.33
2023-04-08T13:53:39.153Z,15.20
2023-04-08T13:56:06.042Z,15.68
2023-04-08T13:58:32.697Z,15.63
2023-04-08T14:00:59.407Z,14.93
2023-04-08T14:03:26.505Z,15.18
2023-04-08T14:05:53.670Z,14.73
2023-04-08T14:08:25.198Z,15.13
2023-04-08T14:10:53.541Z,14.98
2023-04-08T14:13:20.789Z,16.17
2023-04-08T14:15:48.064Z,16.73
2023-04-08T14:18:17.444Z,17.13
2023-04-08T14:20:44.547Z,16.70
2023-04-08T14:23:13.354Z,15.90
2023-04-08T14:25:40.697Z,16.17
2023-04-08T14:30:36.283Z,16.27
2023-04-08T14:33:05.080Z,16.90
2023-04-08T14:35:32.011Z,17.48
2023-04-08T14:37:59.120Z,17.63
2023-04-08T14:40:25.988Z,17.42
2023-04-08T14:42:52.691Z,17.50
2023-04-08T14:45:19.452Z,14.43
2023-04-08T14:47:46.209Z,16.92
2023-04-08T14:50:12.923Z,15.45
2023-04-08T14:52:39.786Z,10.65
2023-04-08T14:55:06.936Z,13.48
2023-04-08T14:57:33.949Z,14.00
2023-04-08T15:00:00.712Z,14.75
2023-04-08T15:02:27.618Z,14.00
2023-04-08T15:04:54.318Z,15.23
2023-04-08T15:07:21.006Z,15.43
2023-04-08T15:09:47.793Z,15.07
2023-04-08T15:12:14.466Z,15.88
2023-04-08T15:14:41.171Z,15.77
2023-04-08T15:17:07.820Z,15.10
2023-04-08T15:19:34.473Z,16.25
2023-04-08T15:22:01.131Z,15.13
2023-04-08T15:24:27.780Z,15.65
2023-04-08T15:26:54.560Z,15.93
2023-04-08T15:29:23.941Z,13.05
2023-04-08T15:31:50.588Z,10.82
2023-04-08T15:34:17.258Z,10.77
2023-04-08T15:36:45.206Z,11.00
2023-04-08T15:39:12.107Z,11.15
2023-04-08T15:41:38.834Z,10.23
2023-04-08T15:44:05.676Z,7.82
2023-04-08T15:46:32.427Z,7.78
2023-04-08T15:49:01.271Z,9.52
2023-04-08T15:51:28.633Z,9.95
2023-04-08T15:53:55.364Z,9.43
2023-04-08T15:56:22.437Z,9.90
2023-04-08T15:58:49.438Z,9.57
2023-04-08T16:01:18.641Z,9.77
2023-04-08T16:03:45.776Z,10.25
2023-04-08T16:06:12.558Z,10.30
2023-04-08T16:08:39.853Z,10.02
2023-04-08T16:13:35.115Z,7.75
2023-04-08T16:16:02.550Z,9.73
2023-04-08T16:18:29.853Z,9.93
2023-04-08T16:20:56.945Z,9.40
2023-04-08T16:23:23.694Z,9.13
2023-04-08T16:25:50.368Z,8.73
2023-04-08T16:28:18.060Z,8.98
2023-04-08T16:30:46.272Z,9.07
2023-04-08T16:33:13.119Z,9.95
2023-04-08T16:35:40.284Z,9.82
2023-04-08T16:38:07.102Z,9.25
2023-04-08T16:40:34.767Z,8.82
2023-04-08T16:43:03.947Z,9.30
2023-04-08T16:45:32.448Z,9.65
2023-04-08T16:48:00.372Z,10.23
2023-04-08T16:50:28.359Z,9.13
2023-04-08T16:52:55.353Z,9.68
2023-04-08T16:55:22.100Z,9.98
2023-04-08T16:57:48.927Z,11.02
2023-04-08T17:00:17.933Z,10.75
2023-04-08T17:02:47.322Z,10.77
2023-04-08T17:05:14.451Z,10.57
2023-04-08T17:07:41.160Z,7.85
2023-04-08T17:10:08.510Z,11.88
2023-04-08T17:12:36.161Z,10.82
2023-04-08T17:15:03.355Z,11.88
2023-04-08T17:17:30.066Z,11.13
2023-04-08T17:19:56.947Z,12.02
2023-04-08T17:22:23.709Z,11.30
2023-04-08T17:24:50.486Z,11.82
2023-04-08T17:27:17.224Z,11.38
2023-04-08T17:29:44.092Z,11.75
2023-04-08T17:32:12.405Z,11.45
2023-04-08T17:34:39.388Z,11.48
2023-04-08T17:37:06.076Z,12.70
2023-04-08T17:39:33.424Z,11.98
2023-04-08T17:42:01.995Z,11.85
2023-04-08T17:44:30.003Z,11.98
2023-04-08T17:46:56.830Z,13.13
2023-04-08T17:49:24.013Z,9.48
2023-04-08T17:51:51.087Z,13.82
2023-04-08T17:54:17.979Z,14.20
2023-04-08T17:56:45.443Z,13.40
2023-04-08T17:59:13.197Z,13.43
2023-04-08T18:01:40.003Z,14.15
2023-04-08T18:04:08.288Z,13.07
2023-04-08T18:06:35.245Z,13.73
2023-04-08T18:09:03.747Z,13.65
2023-04-08T18:11:30.819Z,14.23
2023-04-08T18:13:57.660Z,13.85
2023-04-08T18:16:24.420Z,13.20
2023-04-08T18:18:51.378Z,13.50
2023-04-08T18:21:18.395Z,13.38
2023-04-08T18:23:49.118Z,14.00
2023-04-08T18:26:16.057Z,15.15
2023-04-08T18:28:42.781Z,15.20
2023-04-08T18:31:09.597Z,15.68
2023-04-08T18:33:40.274Z,16.15
2023-04-08T18:36:12.471Z,15.63
2023-04-08T18:39:10.372Z,15.57
2023-04-08T18:41:37.281Z,15.55
2023-04-08T18:44:04.069Z,14.82
2023-04-08T18:46:31.307Z,15.55
2023-04-08T18:48:58.570Z,14.90
2023-04-08T18:51:25.243Z,15.95
2023-04-08T18:53:52.332Z,16.45
2023-04-08T18:56:21.112Z,15.95
2023-04-08T18:58:49.583Z,17.95
2023-04-08T19:01:16.814Z,17.58
2023-04-08T19:03:43.787Z,17.90
2023-04-08T19:06:12.333Z,17.15
2023-04-08T19:08:39.266Z,16.83
2023-04-08T19:11:06.451Z,17.60
2023-04-08T19:13:33.227Z,17.48
2023-04-08T19:15:59.978Z,18.15
2023-04-08T19:18:26.699Z,17.67
2023-04-08T19:20:54.058Z,18.17
2023-04-08T19:25:47.540Z,17.27
2023-04-08T19:28:14.437Z,17.13
2023-04-08T19:30:41.371Z,17.27
2023-04-08T19:33:11.132Z,16.73
2023-04-08T19:35:38.139Z,17.95
2023-04-08T19:38:05.605Z,17.45
2023-04-08T19:42:58.901Z,15.65
2023-04-08T19:45:25.789Z,16.75
2023-04-08T19:47:52.501Z,16.40
2023-04-08T19:50:22.087Z,17.60
2023-04-08T19:52:48.750Z,15.90
2023-04-08T19:55:15.728Z,16.13
2023-04-08T19:57:42.444Z,17.67
2023-04-08T20:00:10.470Z,17.15
2023-04-08T20:02:38.155Z,17.48
2023-04-08T20:05:05.201Z,18.40
2023-04-08T20:07:32.067Z,18.10
2023-04-08T20:09:58.836Z,17.83
2023-04-08T20:12:25.686Z,17.77
2023-04-08T20:14:52.555Z,19.13
2023-04-08T20:17:20.805Z,14.55
2023-04-08T20:19:47.510Z,19.63
2023-04-08T20:22:14.242Z,19.40
2023-04-08T20:24:41.784Z,18.48
2023-04-08T20:27:08.494Z,19.33
2023-04-08T20:29:35.161Z,18.13
2023-04-08T20:32:01.866Z,18.55
2023-04-08T20:34:28.578Z,18.13
2023-04-08T20:36:55.990Z,19.55
2023-04-08T20:41:59.426Z,18.13
2023-04-08T20:44:27.288Z,18.33
2023-04-08T20:46:54.735Z,20.15
2023-04-08T20:49:21.552Z,19.27
2023-04-08T20:51:48.293Z,19.17
2023-04-08T20:54:15.722Z,19.45
2023-04-08T20:56:42.547Z,19.50
2023-04-08T20:59:09.264Z,21.08
2023-04-08T21:01:36.234Z,20.08
2023-04-08T21:04:04.723Z,20.98
2023-04-08T21:06:32.277Z,22.38
2023-04-08T21:08:59.011Z,24.00
2023-04-08T21:11:25.885Z,21.67
2023-04-08T21:13:52.530Z,22.77
2023-04-08T21:16:19.228Z,24.85
2023-04-08T21:18:45.923Z,22.42
2023-04-08T21:21:12.635Z,24.73
2023-04-08T21:23:39.332Z,24.35
2023-04-08T21:26:15.019Z,22.77
2023-04-08T21:28:41.678Z,22.27
2023-04-08T21:31:12.464Z,25.08
2023-04-08T21:33:40.045Z,22.55
2023-04-08T21:36:07.123Z,22.10
2023-04-08T21:38:34.689Z,22.05
2023-04-08T21:41:01.620Z,21.00
2023-04-08T21:43:28.378Z,21.27
2023-04-08T21:45:55.327Z,21.83
2023-04-08T21:48:22.047Z,21.73
2023-04-08T21:50:49.076Z,21.42
2023-04-08T21:53:15.765Z,22.00
2023-04-08T21:55:42.496Z,18.60
2023-04-08T21:58:12.033Z,19.20
2023-04-08T22:00:39.108Z,20.55
2023-04-08T22:03:07.359Z,20.05
2023-04-08T22:05:34.321Z,17.98
2023-04-08T22:08:01.977Z,18.63
2023-04-08T22:10:28.760Z,19.08
2023-04-08T22:12:55.537Z,15.38
2023-04-08T22:15:22.292Z,22.73
2023-04-08T22:17:49.096Z,22.23
2023-04-08T22:20:15.869Z,22.38
2023-04-08T22:22:42.820Z,14.77
2023-04-08T22:25:09.761Z,15.45
2023-04-08T22:27:36.690Z,15.55
2023-04-08T22:30:03.908Z,15.90
2023-04-08T22:32:31.277Z,18.70
2023-04-08T22:34:58.066Z,19.42
2023-04-08T22:37:24.715Z,17.98
2023-04-08T22:39:52.027Z,7.93
2023-04-08T22:44:45.429Z,10.50
2023-04-08T22:47:12.121Z,13.10
2023-04-08T22:49:41.471Z,14.60
2023-04-08T22:52:08.468Z,14.02
2023-04-08T22:54:35.211Z,12.75
2023-04-08T22:57:02.463Z,11.27
2023-04-08T22:59:29.485Z,10.05
2023-04-08T23:01:56.301Z,8.48
2023-04-08T23:04:23.098Z,8.82
2023-04-08T23:06:49.771Z,9.05
2023-04-08T23:09:16.484Z,10.25
2023-04-08T23:11:43.149Z,9.70
2023-04-08T23:14:10.985Z,10.63
2023-04-08T23:16:37.655Z,10.30
2023-04-08T23:19:04.381Z,8.45
2023-04-08T23:21:31.158Z,10.05
2023-04-08T23:23:57.826Z,10.18
2023-04-08T23:26:25.234Z,7.68
2023-04-08T23:28:52.394Z,9.60
2023-04-08T23:31:19.525Z,8.77
2023-04-08T23:33:46.263Z,8.82
2023-04-08T23:36:13.030Z,9.80
2023-04-08T23:38:40.161Z,10.52
2023-04-08T23:41:07.745Z,11.38
2023-04-08T23:43:34.514Z,12.93
2023-04-08T23:46:01.252Z,15.27
2023-04-08T23:48:28.157Z,15.30
2023-04-08T23:50:55.885Z,16.10
2023-04-08T23:53:22.666Z,15.93
2023-04-08T23:55:49.389Z,17.33
2023-04-08T23:58:16.158Z,17.33
